Time,TemperatureF,DewpointF,PressureIn,WindDirection,WindDirectionDegrees,WindSpeedMPH,WindSpeedGustMPH,Humidity,HourlyPrecipIn,Conditions,Clouds,dailyrainin,SoftwareType,DateUTC
2013-01-08 00:11:00,26.8,26.3,30.06,WNW,292,0.0,-999.0,98,-99.99,,,0.00,Acu-Link.com,2013-01-08 05:11:00,
2013-01-08 00:26:00,27.0,26.5,30.07,SW,225,0.0,-999.0,98,-99.99,,,0.00,Acu-Link.com,2013-01-08 05:26:00,
2013-01-08 00:56:00,26.2,25.7,30.07,NE,45,0.0,-999.0,98,-99.99,,,0.00,Acu-Link.com,2013-01-08 05:56:00,
2013-01-08 01:11:00,25.9,25.4,30.07,ESE,112,0.0,-999.0,98,-99.99,,,0.00,Acu-Link.com,2013-01-08 06:11:00,
2013-01-08 01:26:00,26.2,25.7,30.07,WSW,247,0.0,-999.0,98,-99.99,,,0.00,Acu-Link.com,2013-01-08 06:26:00,
2013-01-08 01:41:00,25.5,25.0,30.07,WNW,292,0.0,-999.0,98,-99.99,,,0.00,Acu-Link.com,2013-01-08 06:41:00,
2013-01-08 01:56:00,25.7,25.2,30.07,East,90,0.0,-999.0,98,-99.99,,,0.00,Acu-Link.com,2013-01-08 06:56:00,
2013-01-08 02:11:00,25.9,25.4,30.06,West,270,0.0,-999.0,98,-99.99,,,0.00,Acu-Link.com,2013-01-08 07:11:00,
2013-01-08 02:27:00,25.7,25.2,30.06,SSW,202,0.0,-999.0,98,-99.99,,,0.00,Acu-Link.com,2013-01-08 07:27:00,
2013-01-08 02:42:00,26.1,25.6,30.06,WNW,292,0.0,-999.0,98,-99.99,,,0.00,Acu-Link.com,2013-01-08 07:42:00,
2013-01-08 02:57:00,25.5,25.0,30.07,East,90,0.0,-999.0,98,-99.99,,,0.00,Acu-Link.com,2013-01-08 07:57:00,
2013-01-08 03:12:00,25.5,25.0,30.07,NW,315,0.0,-999.0,98,-99.99,,,0.00,Acu-Link.com,2013-01-08 08:12:00,
2013-01-08 03:27:00,25.7,25.2,30.06,SSW,202,0.0,-999.0,98,-99.99,,,0.00,Acu-Link.com,2013-01-08 08:27:00,
2013-01-08 03:42:00,25.5,25.0,30.07,South,180,0.0,-999.0,98,-99.99,,,0.00,Acu-Link.com,2013-01-08 08:42:00,
2013-01-08 03:57:00,25.5,25.0,30.07,WNW,292,0.0,-999.0,98,-99.99,,,0.00,Acu-Link.com,2013-01-08 08:57:00,
2013-01-08 04:12:00,25.3,24.8,30.07,NNE,22,0.0,-999.0,98,-99.99,,,0.00,Acu-Link.com,2013-01-08 09:12:00,
2013-01-08 04:27:00,25.5,25.0,30.06,WNW,292,0.0,-999.0,98,-99.99,,,0.00,Acu-Link.com,2013-01-08 09:27:00,
2013-01-08 04:43:00,25.5,25.0,30.06,SSE,157,0.0,-999.0,98,-99.99,,,0.00,Acu-Link.com,2013-01-08 09:43:00,
2013-01-08 04:58:00,25.5,25.0,30.05,West,270,0.0,-999.0,98,-99.99,,,0.00,Acu-Link.com,2013-01-08 09:58:00,
2013-01-08 05:13:00,25.7,25.2,30.06,East,90,0.0,-999.0,98,-99.99,,,0.00,Acu-Link.com,2013-01-08 10:13:00,
2013-01-08 05:28:00,25.9,25.4,30.06,SSE,157,0.0,-999.0,98,-99.99,,,0.00,Acu-Link.com,2013-01-08 10:28:00,
2013-01-08 05:43:00,25.9,25.4,30.07,SW,225,0.0,-999.0,98,-99.99,,,0.00,Acu-Link.com,2013-01-08 10:43:00,
2013-01-08 05:58:00,25.9,25.4,30.06,North,0,0.0,-999.0,98,-99.99,,,0.00,Acu-Link.com,2013-01-08 10:58:00,
2013-01-08 06:13:00,25.7,25.2,30.07,East,90,0.0,-999.0,98,-99.99,,,0.00,Acu-Link.com,2013-01-08 11:13:00,
2013-01-08 06:28:00,25.7,25.2,30.07,West,270,0.0,-999.0,98,-99.99,,,0.00,Acu-Link.com,2013-01-08 11:28:00,
2013-01-08 06:43:00,26.6,26.1,30.08,SE,135,0.0,-999.0,98,-99.99,,,0.00,Acu-Link.com,2013-01-08 11:43:00,
2013-01-08 06:58:00,26.8,26.3,30.07,NNE,22,0.0,-999.0,98,-99.99,,,0.00,Acu-Link.com,2013-01-08 11:58:00,
2013-01-08 07:14:00,26.6,26.1,30.08,West,270,0.0,-999.0,98,-99.99,,,0.00,Acu-Link.com,2013-01-08 12:14:00,
2013-01-08 07:29:00,26.6,26.1,30.08,East,90,0.0,-999.0,98,-99.99,,,0.00,Acu-Link.com,2013-01-08 12:29:00,
2013-01-08 07:44:00,26.6,26.1,30.09,NNW,337,0.0,-999.0,98,-99.99,,,0.00,Acu-Link.com,2013-01-08 12:44:00,
2013-01-08 07:59:00,27.3,26.8,30.10,ENE,67,0.0,-999.0,98,-99.99,,,0.00,Acu-Link.com,2013-01-08 12:59:00,
2013-01-08 08:14:00,27.3,26.8,30.11,NNW,337,0.0,-999.0,98,-99.99,,,0.00,Acu-Link.com,2013-01-08 13:14:00,
2013-01-08 08:29:00,28.2,27.7,30.11,WNW,292,0.0,-999.0,98,-99.99,,,0.00,Acu-Link.com,2013-01-08 13:29:00,
2013-01-08 08:44:00,28.8,28.3,30.12,NNW,337,0.0,-999.0,98,-99.99,,,0.00,Acu-Link.com,2013-01-08 13:44:00,
2013-01-08 08:59:00,30.6,30.1,30.13,SE,135,0.0,-999.0,98,-99.99,,,0.00,Acu-Link.com,2013-01-08 13:59:00,
2013-01-08 09:14:00,31.3,30.8,30.13,NNW,337,0.0,-999.0,98,-99.99,,,0.00,Acu-Link.com,2013-01-08 14:14:00,
2013-01-08 09:30:00,32.4,31.9,30.13,ESE,112,0.0,-999.0,98,-99.99,,,0.00,Acu-Link.com,2013-01-08 14:30:00,
2013-01-08 09:45:00,33.8,33.3,30.14,NNW,337,0.0,-999.0,98,-99.99,,,0.00,Acu-Link.com,2013-01-08 14:45:00,
2013-01-08 10:00:00,35.4,34.9,30.14,ESE,112,0.0,-999.0,98,-99.99,,,0.00,Acu-Link.com,2013-01-08 15:00:00,
2013-01-08 10:15:00,37.2,36.7,30.15,ESE,112,0.0,-999.0,98,-99.99,,,0.00,Acu-Link.com,2013-01-08 15:15:00,
2013-01-08 10:30:00,38.8,38.3,30.14,ESE,112,0.0,-999.0,98,-99.99,,,0.00,Acu-Link.com,2013-01-08 15:30:00,
2013-01-08 10:45:00,40.6,38.7,30.14,NNE,22,1.7,-999.0,93,-99.99,,,0.00,Acu-Link.com,2013-01-08 15:45:00,
2013-01-08 11:00:00,43.0,39.4,30.15,North,0,2.7,-999.0,87,-99.99,,,0.00,Acu-Link.com,2013-01-08 16:00:00,
2013-01-08 11:15:00,45.5,40.0,30.14,ENE,67,2.2,-999.0,81,-99.99,,,0.00,Acu-Link.com,2013-01-08 16:15:00,
2013-01-08 11:30:00,47.7,40.8,30.13,North,0,1.7,-999.0,77,-99.99,,,0.00,Acu-Link.com,2013-01-08 16:30:00,
2013-01-08 11:46:00,49.5,41.2,30.12,West,270,2.7,-999.0,73,-99.99,,,0.00,Acu-Link.com,2013-01-08 16:46:00,
2013-01-08 12:01:00,51.3,42.6,30.11,NNW,337,1.7,-999.0,72,-99.99,,,0.00,Acu-Link.com,2013-01-08 17:01:00,
2013-01-08 12:16:00,51.3,41.9,30.11,North,0,3.2,-999.0,70,-99.99,,,0.00,Acu-Link.com,2013-01-08 17:16:00,
2013-01-08 12:31:00,51.8,43.1,30.10,NE,45,2.2,-999.0,72,-99.99,,,0.00,Acu-Link.com,2013-01-08 17:31:00,
2013-01-08 12:46:00,52.9,43.4,30.09,East,90,1.1,-999.0,70,-99.99,,,0.00,Acu-Link.com,2013-01-08 17:46:00,
2013-01-08 13:01:00,54.7,44.7,30.07,NNW,337,0.0,-999.0,69,-99.99,,,0.00,Acu-Link.com,2013-01-08 18:01:00,
2013-01-08 13:16:00,55.6,44.8,30.06,SSW,202,3.7,-999.0,67,-99.99,,,0.00,Acu-Link.com,2013-01-08 18:16:00,
2013-01-08 13:31:00,56.3,46.3,30.06,ENE,67,2.7,-999.0,69,-99.99,,,0.00,Acu-Link.com,2013-01-08 18:31:00,
2013-01-08 13:46:00,57.9,46.6,30.07,SSW,202,8.9,-999.0,66,-99.99,,,0.00,Acu-Link.com,2013-01-08 18:46:00,
2013-01-08 14:02:00,56.8,46.7,30.06,NNE,22,5.8,-999.0,69,-99.99,,,0.00,Acu-Link.com,2013-01-08 19:02:00,
2013-01-08 14:17:00,57.0,46.9,30.05,South,180,3.7,-999.0,69,-99.99,,,0.00,Acu-Link.com,2013-01-08 19:17:00,
2013-01-08 14:32:00,57.6,48.3,30.05,SSW,202,4.7,-999.0,71,-99.99,,,0.00,Acu-Link.com,2013-01-08 19:32:00,
2013-01-08 14:47:00,56.5,48.3,30.05,SSW,202,7.3,-999.0,74,-99.99,,,0.00,Acu-Link.com,2013-01-08 19:47:00,
2013-01-08 15:02:00,56.7,48.5,30.04,South,180,3.7,-999.0,74,-99.99,,,0.00,Acu-Link.com,2013-01-08 20:02:00,
2013-01-08 15:17:00,56.5,48.7,30.05,South,180,5.8,-999.0,75,-99.99,,,0.00,Acu-Link.com,2013-01-08 20:17:00,
2013-01-08 15:32:00,57.4,48.8,30.05,SSW,202,4.7,-999.0,73,-99.99,,,0.00,Acu-Link.com,2013-01-08 20:32:00,
2013-01-08 15:47:00,57.2,48.3,30.04,SSW,202,5.3,-999.0,72,-99.99,,,0.00,Acu-Link.com,2013-01-08 20:47:00,
2013-01-08 16:02:00,57.6,48.3,30.04,SSE,157,2.7,-999.0,71,-99.99,,,0.00,Acu-Link.com,2013-01-08 21:02:00,
2013-01-08 16:18:00,57.6,49.4,30.04,SSW,202,3.2,-999.0,74,-99.99,,,0.00,Acu-Link.com,2013-01-08 21:18:00,
2013-01-08 16:33:00,57.2,49.0,30.04,ESE,112,0.0,-999.0,74,-99.99,,,0.00,Acu-Link.com,2013-01-08 21:33:00,
2013-01-08 16:48:00,56.7,48.5,30.04,SSE,157,2.2,-999.0,74,-99.99,,,0.00,Acu-Link.com,2013-01-08 21:48:00,
2013-01-08 17:03:00,55.6,48.2,30.03,ESE,112,0.0,-999.0,76,-99.99,,,0.00,Acu-Link.com,2013-01-08 22:03:00,
2013-01-08 17:18:00,54.9,48.2,30.04,South,180,3.7,-999.0,78,-99.99,,,0.00,Acu-Link.com,2013-01-08 22:18:00,
2013-01-08 17:33:00,53.8,47.8,30.03,North,0,1.7,-999.0,80,-99.99,,,0.00,Acu-Link.com,2013-01-08 22:33:00,
2013-01-08 17:48:00,53.2,47.2,30.02,SSW,202,2.7,-999.0,80,-99.99,,,0.00,Acu-Link.com,2013-01-08 22:48:00,
2013-01-08 18:03:00,52.2,46.9,30.04,SSW,202,0.0,-999.0,82,-99.99,,,0.00,Acu-Link.com,2013-01-08 23:03:00,
2013-01-08 18:18:00,50.9,46.2,30.05,West,270,0.0,-999.0,84,-99.99,,,0.00,Acu-Link.com,2013-01-08 23:18:00,
2013-01-08 18:34:00,48.0,44.9,30.05,SSW,202,0.0,-999.0,89,-99.99,,,0.00,Acu-Link.com,2013-01-08 23:34:00,
2013-01-08 18:49:00,46.9,44.1,30.06,WSW,247,0.0,-999.0,90,-99.99,,,0.00,Acu-Link.com,2013-01-08 23:49:00,
2013-01-08 19:04:00,45.7,43.2,30.06,East,90,0.0,-999.0,91,-99.99,,,0.00,Acu-Link.com,2013-01-09 00:04:00,
2013-01-08 19:19:00,44.6,43.3,30.05,South,180,0.0,-999.0,95,-99.99,,,0.00,Acu-Link.com,2013-01-09 00:19:00,
2013-01-08 19:34:00,43.7,42.4,30.05,SW,225,0.0,-999.0,95,-99.99,,,0.00,Acu-Link.com,2013-01-09 00:34:00,
2013-01-08 19:49:00,43.2,42.7,30.05,NW,315,0.0,-999.0,98,-99.99,,,0.00,Acu-Link.com,2013-01-09 00:49:00,
2013-01-08 20:04:00,42.6,42.1,30.05,SSW,202,0.0,-999.0,98,-99.99,,,0.00,Acu-Link.com,2013-01-09 01:04:00,
2013-01-08 20:20:00,42.1,41.6,30.05,ENE,67,0.0,-999.0,98,-99.99,,,0.00,Acu-Link.com,2013-01-09 01:20:00,
2013-01-08 20:35:00,41.7,41.2,30.05,South,180,0.0,-999.0,98,-99.99,,,0.00,Acu-Link.com,2013-01-09 01:35:00,
2013-01-08 20:50:00,41.0,40.5,30.06,South,180,0.0,-999.0,98,-99.99,,,0.00,Acu-Link.com,2013-01-09 01:50:00,
2013-01-08 21:05:00,41.0,40.5,30.07,SW,225,0.0,-999.0,98,-99.99,,,0.00,Acu-Link.com,2013-01-09 02:05:00,
2013-01-08 21:20:00,41.2,40.7,30.06,NNW,337,0.0,-999.0,98,-99.99,,,0.00,Acu-Link.com,2013-01-09 02:20:00,
2013-01-08 21:35:00,41.0,40.5,30.07,SSW,202,0.0,-999.0,98,-99.99,,,0.00,Acu-Link.com,2013-01-09 02:35:00,
2013-01-08 21:50:00,41.4,40.9,30.06,NNW,337,0.0,-999.0,98,-99.99,,,0.00,Acu-Link.com,2013-01-09 02:50:00,
2013-01-08 22:05:00,42.3,41.8,30.06,West,270,0.0,-999.0,98,-99.99,,,0.00,Acu-Link.com,2013-01-09 03:05:00,
2013-01-08 22:20:00,43.7,43.2,30.07,South,180,0.0,-999.0,98,-99.99,,,0.00,Acu-Link.com,2013-01-09 03:20:00,
2013-01-08 22:36:00,46.4,45.9,30.06,South,180,1.7,-999.0,98,-99.99,,,0.00,Acu-Link.com,2013-01-09 03:36:00,
2013-01-08 22:51:00,47.5,46.4,30.06,NNW,337,0.0,-999.0,96,-99.99,,,0.00,Acu-Link.com,2013-01-09 03:51:00,
2013-01-08 23:06:00,47.7,46.6,30.06,SSW,202,2.2,-999.0,96,-99.99,,,0.00,Acu-Link.com,2013-01-09 04:06:00,
2013-01-08 23:21:00,48.4,46.8,30.06,WSW,247,0.0,-999.0,94,-99.99,,,0.00,Acu-Link.com,2013-01-09 04:21:00,
2013-01-08 23:36:00,48.0,46.4,30.06,SSW,202,0.0,-999.0,94,-99.99,,,0.00,Acu-Link.com,2013-01-09 04:36:00,
2013-01-08 23:51:00,48.0,46.6,30.07,SE,135,0.0,-999.0,95,-99.99,,,0.00,Acu-Link.com,2013-01-09 04:51:00,